sensor_id;sensor_type;location;lat;lon;timestamp;P1;durP1;ratioP1;P2;durP2;ratioP2
6412;SDS011;3239;48.714;9.472;2022-11-15T00:00:24;10.53;;;5.60;;
6412;SDS011;3239;48.714;9.472;2022-11-15T00:02:52;5.87;;;4.97;;
6412;SDS011;3239;48.714;9.472;2022-11-15T00:05:18;6.80;;;4.90;;
6412;SDS011;3239;48.714;9.472;2022-11-15T00:07:44;5.83;;;5.13;;
6412;SDS011;3239;48.714;9.472;2022-11-15T00:10:09;8.53;;;4.77;;
6412;SDS011;3239;48.714;9.472;2022-11-15T00:12:35;5.03;;;4.30;;
6412;SDS011;3239;48.714;9.472;2022-11-15T00:15:01;4.70;;;4.10;;
6412;SDS011;3239;48.714;9.472;2022-11-15T00:17:27;5.50;;;4.33;;
6412;SDS011;3239;48.714;9.472;2022-11-15T00:19:53;6.63;;;4.60;;
6412;SDS011;3239;48.714;9.472;2022-11-15T00:22:18;9.53;;;5.50;;
6412;SDS011;3239;48.714;9.472;2022-11-15T00:24:44;5.70;;;4.70;;
6412;SDS011;3239;48.714;9.472;2022-11-15T00:27:10;5.70;;;4.57;;
6412;SDS011;3239;48.714;9.472;2022-11-15T00:29:36;5.33;;;4.50;;
6412;SDS011;3239;48.714;9.472;2022-11-15T00:32:03;6.90;;;4.77;;
6412;SDS011;3239;48.714;9.472;2022-11-15T00:34:30;6.60;;;5.27;;
6412;SDS011;3239;48.714;9.472;2022-11-15T00:36:55;4.43;;;3.73;;
6412;SDS011;3239;48.714;9.472;2022-11-15T00:39:21;4.70;;;4.13;;
6412;SDS011;3239;48.714;9.472;2022-11-15T00:41:47;9.40;;;4.43;;
6412;SDS011;3239;48.714;9.472;2022-11-15T00:44:13;5.40;;;4.10;;
6412;SDS011;3239;48.714;9.472;2022-11-15T00:46:39;4.53;;;4.10;;
6412;SDS011;3239;48.714;9.472;2022-11-15T00:49:04;6.03;;;3.77;;
6412;SDS011;3239;48.714;9.472;2022-11-15T00:51:30;4.10;;;3.27;;
6412;SDS011;3239;48.714;9.472;2022-11-15T00:53:56;4.57;;;3.20;;
6412;SDS011;3239;48.714;9.472;2022-11-15T00:56:21;3.87;;;3.00;;
6412;SDS011;3239;48.714;9.472;2022-11-15T00:58:47;2.90;;;2.63;;
6412;SDS011;3239;48.714;9.472;2022-11-15T01:01:13;6.00;;;3.50;;
6412;SDS011;3239;48.714;9.472;2022-11-15T01:03:40;5.00;;;3.37;;
6412;SDS011;3239;48.714;9.472;2022-11-15T01:06:07;4.20;;;3.80;;
6412;SDS011;3239;48.714;9.472;2022-11-15T01:08:33;4.93;;;3.53;;
6412;SDS011;3239;48.714;9.472;2022-11-15T01:11:07;8.87;;;3.60;;
6412;SDS011;3239;48.714;9.472;2022-11-15T01:13:36;4.23;;;3.20;;
6412;SDS011;3239;48.714;9.472;2022-11-15T01:16:21;6.20;;;4.37;;
6412;SDS011;3239;48.714;9.472;2022-11-15T01:18:47;5.00;;;4.07;;
6412;SDS011;3239;48.714;9.472;2022-11-15T01:21:14;4.03;;;3.63;;
6412;SDS011;3239;48.714;9.472;2022-11-15T01:23:43;7.37;;;4.20;;
6412;SDS011;3239;48.714;9.472;2022-11-15T01:26:11;4.90;;;4.00;;
6412;SDS011;3239;48.714;9.472;2022-11-15T01:28:40;4.67;;;3.20;;
6412;SDS011;3239;48.714;9.472;2022-11-15T01:31:11;5.20;;;3.30;;
6412;SDS011;3239;48.714;9.472;2022-11-15T01:33:40;3.37;;;3.07;;
6412;SDS011;3239;48.714;9.472;2022-11-15T01:36:07;5.73;;;2.30;;
6412;SDS011;3239;48.714;9.472;2022-11-15T01:38:37;5.30;;;3.50;;
6412;SDS011;3239;48.714;9.472;2022-11-15T01:41:02;4.10;;;3.30;;
6412;SDS011;3239;48.714;9.472;2022-11-15T01:43:30;4.93;;;3.20;;
6412;SDS011;3239;48.714;9.472;2022-11-15T01:46:05;4.83;;;3.10;;
6412;SDS011;3239;48.714;9.472;2022-11-15T01:49:10;5.37;;;3.10;;
6412;SDS011;3239;48.714;9.472;2022-11-15T01:51:42;8.93;;;4.10;;
6412;SDS011;3239;48.714;9.472;2022-11-15T01:54:09;3.37;;;2.90;;
6412;SDS011;3239;48.714;9.472;2022-11-15T01:56:43;5.57;;;3.30;;
6412;SDS011;3239;48.714;9.472;2022-11-15T01:59:16;3.80;;;3.10;;
6412;SDS011;3239;48.714;9.472;2022-11-15T02:01:42;3.03;;;2.73;;
6412;SDS011;3239;48.714;9.472;2022-11-15T02:04:13;3.90;;;2.67;;
6412;SDS011;3239;48.714;9.472;2022-11-15T02:06:47;4.23;;;3.23;;
6412;SDS011;3239;48.714;9.472;2022-11-15T02:09:14;8.10;;;3.33;;
6412;SDS011;3239;48.714;9.472;2022-11-15T02:11:41;7.53;;;3.60;;
6412;SDS011;3239;48.714;9.472;2022-11-15T02:14:07;6.97;;;3.93;;
6412;SDS011;3239;48.714;9.472;2022-11-15T02:19:40;3.90;;;2.77;;
6412;SDS011;3239;48.714;9.472;2022-11-15T02:22:58;4.57;;;3.30;;
6412;SDS011;3239;48.714;9.472;2022-11-15T02:26:13;8.93;;;3.47;;
6412;SDS011;3239;48.714;9.472;2022-11-15T02:31:57;5.50;;;3.63;;
6412;SDS011;3239;48.714;9.472;2022-11-15T02:43:10;4.43;;;3.83;;
6412;SDS011;3239;48.714;9.472;2022-11-15T02:46:03;5.60;;;2.90;;
6412;SDS011;3239;48.714;9.472;2022-11-15T02:49:10;6.73;;;3.50;;
6412;SDS011;3239;48.714;9.472;2022-11-15T02:51:39;4.10;;;3.40;;
6412;SDS011;3239;48.714;9.472;2022-11-15T02:54:10;3.50;;;3.20;;
6412;SDS011;3239;48.714;9.472;2022-11-15T02:56:40;4.97;;;3.07;;
6412;SDS011;3239;48.714;9.472;2022-11-15T02:59:13;6.10;;;3.60;;
6412;SDS011;3239;48.714;9.472;2022-11-15T03:02:29;4.90;;;3.70;;
6412;SDS011;3239;48.714;9.472;2022-11-15T03:08:10;8.33;;;4.23;;
6412;SDS011;3239;48.714;9.472;2022-11-15T03:16:40;7.67;;;4.43;;
6412;SDS011;3239;48.714;9.472;2022-11-15T03:19:25;6.13;;;4.00;;
6412;SDS011;3239;48.714;9.472;2022-11-15T03:21:54;3.73;;;3.40;;
6412;SDS011;3239;48.714;9.472;2022-11-15T03:24:23;5.50;;;3.90;;
6412;SDS011;3239;48.714;9.472;2022-11-15T03:26:51;5.63;;;3.80;;
6412;SDS011;3239;48.714;9.472;2022-11-15T03:29:21;4.40;;;4.00;;
6412;SDS011;3239;48.714;9.472;2022-11-15T03:32:03;4.33;;;3.27;;
6412;SDS011;3239;48.714;9.472;2022-11-15T03:37:11;5.33;;;3.10;;
6412;SDS011;3239;48.714;9.472;2022-11-15T03:39:41;4.30;;;3.57;;
6412;SDS011;3239;48.714;9.472;2022-11-15T03:45:05;5.63;;;3.07;;
6412;SDS011;3239;48.714;9.472;2022-11-15T03:50:39;101.40;;;44.67;;
6412;SDS011;3239;48.714;9.472;2022-11-15T03:53:07;165.93;;;62.60;;
6412;SDS011;3239;48.714;9.472;2022-11-15T03:55:33;44.70;;;22.37;;
6412;SDS011;3239;48.714;9.472;2022-11-15T03:58:00;23.90;;;13.17;;
6412;SDS011;3239;48.714;9.472;2022-11-15T04:00:27;24.37;;;11.70;;
6412;SDS011;3239;48.714;9.472;2022-11-15T04:02:53;16.03;;;9.43;;
6412;SDS011;3239;48.714;9.472;2022-11-15T04:05:19;10.70;;;6.70;;
6412;SDS011;3239;48.714;9.472;2022-11-15T04:07:45;7.80;;;4.90;;
6412;SDS011;3239;48.714;9.472;2022-11-15T04:10:10;8.37;;;5.23;;
6412;SDS011;3239;48.714;9.472;2022-11-15T04:12:41;8.97;;;6.30;;
6412;SDS011;3239;48.714;9.472;2022-11-15T04:15:12;10.57;;;5.60;;
6412;SDS011;3239;48.714;9.472;2022-11-15T04:20:22;8.80;;;6.70;;
6412;SDS011;3239;48.714;9.472;2022-11-15T04:23:13;12.33;;;7.53;;
6412;SDS011;3239;48.714;9.472;2022-11-15T04:26:00;13.83;;;6.90;;
6412;SDS011;3239;48.714;9.472;2022-11-15T04:28:38;9.07;;;6.37;;
6412;SDS011;3239;48.714;9.472;2022-11-15T04:31:22;8.90;;;5.67;;
6412;SDS011;3239;48.714;9.472;2022-11-15T04:33:48;11.80;;;5.50;;
6412;SDS011;3239;48.714;9.472;2022-11-15T04:36:14;4.70;;;4.20;;
6412;SDS011;3239;48.714;9.472;2022-11-15T04:38:58;4.30;;;3.40;;
6412;SDS011;3239;48.714;9.472;2022-11-15T04:41:24;5.47;;;2.80;;
6412;SDS011;3239;48.714;9.472;2022-11-15T04:43:50;6.93;;;3.10;;
6412;SDS011;3239;48.714;9.472;2022-11-15T04:46:16;3.97;;;3.23;;
6412;SDS011;3239;48.714;9.472;2022-11-15T04:48:41;5.60;;;3.30;;
6412;SDS011;3239;48.714;9.472;2022-11-15T04:51:07;4.40;;;3.00;;
6412;SDS011;3239;48.714;9.472;2022-11-15T04:53:33;3.80;;;3.43;;
6412;SDS011;3239;48.714;9.472;2022-11-15T04:55:59;5.47;;;3.57;;
6412;SDS011;3239;48.714;9.472;2022-11-15T04:58:24;4.13;;;3.73;;
6412;SDS011;3239;48.714;9.472;2022-11-15T05:00:50;8.97;;;6.20;;
6412;SDS011;3239;48.714;9.472;2022-11-15T05:03:16;5.03;;;3.93;;
6412;SDS011;3239;48.714;9.472;2022-11-15T05:06:00;4.90;;;3.90;;
6412;SDS011;3239;48.714;9.472;2022-11-15T05:08:27;6.03;;;4.97;;
6412;SDS011;3239;48.714;9.472;2022-11-15T05:10:52;4.80;;;4.37;;
6412;SDS011;3239;48.714;9.472;2022-11-15T05:13:18;8.13;;;4.73;;
6412;SDS011;3239;48.714;9.472;2022-11-15T05:15:44;4.90;;;4.40;;
6412;SDS011;3239;48.714;9.472;2022-11-15T05:18:09;8.10;;;4.93;;
6412;SDS011;3239;48.714;9.472;2022-11-15T05:20:35;9.70;;;4.50;;
6412;SDS011;3239;48.714;9.472;2022-11-15T05:23:01;5.20;;;4.10;;
6412;SDS011;3239;48.714;9.472;2022-11-15T05:25:27;4.80;;;4.30;;
6412;SDS011;3239;48.714;9.472;2022-11-15T05:27:53;7.77;;;4.50;;
6412;SDS011;3239;48.714;9.472;2022-11-15T05:30:19;6.50;;;4.20;;
6412;SDS011;3239;48.714;9.472;2022-11-15T05:32:44;5.07;;;3.90;;
6412;SDS011;3239;48.714;9.472;2022-11-15T05:35:15;7.20;;;4.10;;
6412;SDS011;3239;48.714;9.472;2022-11-15T05:37:59;4.33;;;3.67;;
6412;SDS011;3239;48.714;9.472;2022-11-15T05:40:25;5.40;;;3.67;;
6412;SDS011;3239;48.714;9.472;2022-11-15T05:42:53;7.30;;;4.20;;
6412;SDS011;3239;48.714;9.472;2022-11-15T05:45:19;6.40;;;4.00;;
6412;SDS011;3239;48.714;9.472;2022-11-15T05:47:45;4.70;;;4.00;;
6412;SDS011;3239;48.714;9.472;2022-11-15T05:50:13;9.03;;;3.63;;
6412;SDS011;3239;48.714;9.472;2022-11-15T05:52:40;9.13;;;4.50;;
6412;SDS011;3239;48.714;9.472;2022-11-15T05:55:07;4.93;;;4.27;;
6412;SDS011;3239;48.714;9.472;2022-11-15T05:57:34;6.00;;;4.57;;
6412;SDS011;3239;48.714;9.472;2022-11-15T06:00:00;4.90;;;4.37;;
6412;SDS011;3239;48.714;9.472;2022-11-15T06:02:27;7.70;;;4.97;;
6412;SDS011;3239;48.714;9.472;2022-11-15T06:04:53;4.80;;;4.20;;
6412;SDS011;3239;48.714;9.472;2022-11-15T06:07:19;6.10;;;4.47;;
6412;SDS011;3239;48.714;9.472;2022-11-15T06:09:44;10.20;;;4.43;;
6412;SDS011;3239;48.714;9.472;2022-11-15T06:12:10;4.47;;;3.97;;
6412;SDS011;3239;48.714;9.472;2022-11-15T06:14:36;3.63;;;3.17;;
6412;SDS011;3239;48.714;9.472;2022-11-15T06:17:01;9.23;;;3.80;;
6412;SDS011;3239;48.714;9.472;2022-11-15T06:19:27;4.70;;;3.80;;
6412;SDS011;3239;48.714;9.472;2022-11-15T06:21:57;3.87;;;3.20;;
6412;SDS011;3239;48.714;9.472;2022-11-15T06:24:24;4.27;;;3.07;;
6412;SDS011;3239;48.714;9.472;2022-11-15T06:26:50;4.37;;;3.27;;
6412;SDS011;3239;48.714;9.472;2022-11-15T06:29:16;4.70;;;3.03;;
6412;SDS011;3239;48.714;9.472;2022-11-15T06:31:42;4.37;;;3.50;;
6412;SDS011;3239;48.714;9.472;2022-11-15T06:34:07;3.93;;;3.50;;
6412;SDS011;3239;48.714;9.472;2022-11-15T06:36:34;5.47;;;3.50;;
6412;SDS011;3239;48.714;9.472;2022-11-15T06:39:01;4.60;;;3.23;;
6412;SDS011;3239;48.714;9.472;2022-11-15T06:41:28;4.27;;;3.10;;
6412;SDS011;3239;48.714;9.472;2022-11-15T06:43:54;6.50;;;3.53;;
6412;SDS011;3239;48.714;9.472;2022-11-15T06:46:21;4.00;;;3.60;;
6412;SDS011;3239;48.714;9.472;2022-11-15T06:48:46;4.47;;;3.97;;
6412;SDS011;3239;48.714;9.472;2022-11-15T06:51:14;5.60;;;3.93;;
6412;SDS011;3239;48.714;9.472;2022-11-15T06:55:41;6.17;;;4.70;;
6412;SDS011;3239;48.714;9.472;2022-11-15T06:58:07;7.50;;;5.00;;
6412;SDS011;3239;48.714;9.472;2022-11-15T07:00:32;6.70;;;4.13;;
6412;SDS011;3239;48.714;9.472;2022-11-15T07:03:01;5.57;;;4.67;;
6412;SDS011;3239;48.714;9.472;2022-11-15T07:05:27;6.10;;;4.90;;
6412;SDS011;3239;48.714;9.472;2022-11-15T07:07:54;15.30;;;5.03;;
6412;SDS011;3239;48.714;9.472;2022-11-15T07:10:22;8.60;;;4.90;;
6412;SDS011;3239;48.714;9.472;2022-11-15T07:12:49;6.07;;;4.60;;
6412;SDS011;3239;48.714;9.472;2022-11-15T07:15:16;5.83;;;5.13;;
6412;SDS011;3239;48.714;9.472;2022-11-15T07:17:44;9.50;;;5.30;;
6412;SDS011;3239;48.714;9.472;2022-11-15T07:20:10;5.43;;;4.60;;
6412;SDS011;3239;48.714;9.472;2022-11-15T07:22:38;7.77;;;5.90;;
6412;SDS011;3239;48.714;9.472;2022-11-15T07:25:04;6.73;;;4.30;;
6412;SDS011;3239;48.714;9.472;2022-11-15T07:27:30;9.70;;;5.40;;
6412;SDS011;3239;48.714;9.472;2022-11-15T07:29:56;6.63;;;5.53;;
6412;SDS011;3239;48.714;9.472;2022-11-15T07:32:22;7.27;;;4.83;;
6412;SDS011;3239;48.714;9.472;2022-11-15T07:34:48;5.83;;;5.23;;
6412;SDS011;3239;48.714;9.472;2022-11-15T07:37:13;7.33;;;5.20;;
6412;SDS011;3239;48.714;9.472;2022-11-15T07:39:39;6.47;;;5.40;;
6412;SDS011;3239;48.714;9.472;2022-11-15T07:42:05;10.03;;;5.73;;
6412;SDS011;3239;48.714;9.472;2022-11-15T07:44:49;5.77;;;5.17;;
6412;SDS011;3239;48.714;9.472;2022-11-15T07:47:15;7.00;;;4.90;;
6412;SDS011;3239;48.714;9.472;2022-11-15T07:49:41;6.93;;;5.40;;
6412;SDS011;3239;48.714;9.472;2022-11-15T07:52:06;7.60;;;5.20;;
6412;SDS011;3239;48.714;9.472;2022-11-15T07:54:32;6.23;;;4.73;;
6412;SDS011;3239;48.714;9.472;2022-11-15T07:56:58;6.17;;;5.47;;
6412;SDS011;3239;48.714;9.472;2022-11-15T07:59:24;6.17;;;5.33;;
6412;SDS011;3239;48.714;9.472;2022-11-15T08:01:49;13.30;;;5.80;;
6412;SDS011;3239;48.714;9.472;2022-11-15T08:04:15;11.13;;;5.40;;
6412;SDS011;3239;48.714;9.472;2022-11-15T08:06:41;7.23;;;5.07;;
6412;SDS011;3239;48.714;9.472;2022-11-15T08:09:07;5.77;;;4.10;;
6412;SDS011;3239;48.714;9.472;2022-11-15T08:11:33;11.63;;;3.87;;
6412;SDS011;3239;48.714;9.472;2022-11-15T08:13:59;8.40;;;3.60;;
6412;SDS011;3239;48.714;9.472;2022-11-15T08:16:24;6.40;;;4.00;;
6412;SDS011;3239;48.714;9.472;2022-11-15T08:18:50;5.00;;;3.57;;
6412;SDS011;3239;48.714;9.472;2022-11-15T08:21:18;5.77;;;3.97;;
6412;SDS011;3239;48.714;9.472;2022-11-15T08:23:45;9.57;;;6.47;;
6412;SDS011;3239;48.714;9.472;2022-11-15T08:26:11;14.40;;;8.43;;
6412;SDS011;3239;48.714;9.472;2022-11-15T08:28:37;10.83;;;7.67;;
6412;SDS011;3239;48.714;9.472;2022-11-15T08:31:03;7.30;;;5.90;;
6412;SDS011;3239;48.714;9.472;2022-11-15T08:33:30;8.53;;;4.80;;
6412;SDS011;3239;48.714;9.472;2022-11-15T08:35:58;11.77;;;5.43;;
6412;SDS011;3239;48.714;9.472;2022-11-15T08:38:25;10.13;;;4.73;;
6412;SDS011;3239;48.714;9.472;2022-11-15T08:40:58;5.80;;;4.27;;
6412;SDS011;3239;48.714;9.472;2022-11-15T08:43:28;6.73;;;4.33;;
6412;SDS011;3239;48.714;9.472;2022-11-15T08:45:57;20.40;;;6.97;;
6412;SDS011;3239;48.714;9.472;2022-11-15T08:48:23;6.23;;;5.40;;
6412;SDS011;3239;48.714;9.472;2022-11-15T08:50:52;14.47;;;5.33;;
6412;SDS011;3239;48.714;9.472;2022-11-15T08:53:21;6.40;;;5.07;;
6412;SDS011;3239;48.714;9.472;2022-11-15T08:55:48;8.10;;;4.90;;
6412;SDS011;3239;48.714;9.472;2022-11-15T08:58:13;8.73;;;5.83;;
6412;SDS011;3239;48.714;9.472;2022-11-15T09:00:39;13.50;;;5.43;;
6412;SDS011;3239;48.714;9.472;2022-11-15T09:03:05;6.80;;;5.10;;
6412;SDS011;3239;48.714;9.472;2022-11-15T09:05:31;9.73;;;5.70;;
6412;SDS011;3239;48.714;9.472;2022-11-15T09:08:00;12.40;;;5.13;;
6412;SDS011;3239;48.714;9.472;2022-11-15T09:10:26;10.97;;;5.00;;
6412;SDS011;3239;48.714;9.472;2022-11-15T09:12:51;11.20;;;5.57;;
6412;SDS011;3239;48.714;9.472;2022-11-15T09:15:17;6.13;;;5.53;;
6412;SDS011;3239;48.714;9.472;2022-11-15T09:17:44;9.40;;;5.60;;
6412;SDS011;3239;48.714;9.472;2022-11-15T09:20:10;9.67;;;5.50;;
6412;SDS011;3239;48.714;9.472;2022-11-15T09:22:36;6.47;;;4.70;;
6412;SDS011;3239;48.714;9.472;2022-11-15T09:25:03;7.67;;;4.83;;
6412;SDS011;3239;48.714;9.472;2022-11-15T09:27:30;8.50;;;5.27;;
6412;SDS011;3239;48.714;9.472;2022-11-15T09:29:56;12.03;;;6.63;;
6412;SDS011;3239;48.714;9.472;2022-11-15T09:32:22;13.00;;;5.77;;
6412;SDS011;3239;48.714;9.472;2022-11-15T09:34:48;8.57;;;6.10;;
6412;SDS011;3239;48.714;9.472;2022-11-15T09:37:15;6.87;;;6.10;;
6412;SDS011;3239;48.714;9.472;2022-11-15T09:39:41;13.37;;;6.60;;
6412;SDS011;3239;48.714;9.472;2022-11-15T09:45:18;13.47;;;6.03;;
6412;SDS011;3239;48.714;9.472;2022-11-15T09:48:01;15.97;;;6.53;;
6412;SDS011;3239;48.714;9.472;2022-11-15T09:50:41;10.17;;;6.07;;
6412;SDS011;3239;48.714;9.472;2022-11-15T09:53:25;11.37;;;6.83;;
6412;SDS011;3239;48.714;9.472;2022-11-15T09:56:12;8.80;;;7.50;;
6412;SDS011;3239;48.714;9.472;2022-11-15T09:58:55;9.33;;;6.17;;
6412;SDS011;3239;48.714;9.472;2022-11-15T10:04:40;14.27;;;6.80;;
6412;SDS011;3239;48.714;9.472;2022-11-15T10:13:03;11.33;;;7.10;;
6412;SDS011;3239;48.714;9.472;2022-11-15T10:15:34;13.60;;;7.13;;
6412;SDS011;3239;48.714;9.472;2022-11-15T10:18:05;8.77;;;7.23;;
6412;SDS011;3239;48.714;9.472;2022-11-15T10:21:19;9.60;;;6.70;;
6412;SDS011;3239;48.714;9.472;2022-11-15T10:23:57;13.77;;;7.30;;
6412;SDS011;3239;48.714;9.472;2022-11-15T10:26:23;9.27;;;7.07;;
6412;SDS011;3239;48.714;9.472;2022-11-15T10:28:49;12.50;;;7.10;;
6412;SDS011;3239;48.714;9.472;2022-11-15T10:31:22;14.40;;;7.10;;
6412;SDS011;3239;48.714;9.472;2022-11-15T10:33:51;11.83;;;6.57;;
6412;SDS011;3239;48.714;9.472;2022-11-15T10:36:37;7.97;;;6.63;;
6412;SDS011;3239;48.714;9.472;2022-11-15T10:39:03;11.10;;;5.80;;
6412;SDS011;3239;48.714;9.472;2022-11-15T10:41:30;10.90;;;6.00;;
6412;SDS011;3239;48.714;9.472;2022-11-15T10:46:48;13.93;;;5.90;;
6412;SDS011;3239;48.714;9.472;2022-11-15T10:49:29;13.50;;;6.20;;
6412;SDS011;3239;48.714;9.472;2022-11-15T10:51:58;13.63;;;6.57;;
6412;SDS011;3239;48.714;9.472;2022-11-15T10:54:47;13.73;;;6.57;;
6412;SDS011;3239;48.714;9.472;2022-11-15T10:57:21;8.27;;;6.23;;
6412;SDS011;3239;48.714;9.472;2022-11-15T10:59:57;10.30;;;6.17;;
6412;SDS011;3239;48.714;9.472;2022-11-15T11:05:02;7.33;;;6.03;;
6412;SDS011;3239;48.714;9.472;2022-11-15T11:07:33;8.10;;;5.97;;
6412;SDS011;3239;48.714;9.472;2022-11-15T11:10:16;7.50;;;5.60;;
6412;SDS011;3239;48.714;9.472;2022-11-15T11:12:45;8.97;;;5.93;;
6412;SDS011;3239;48.714;9.472;2022-11-15T11:15:12;10.23;;;5.33;;
6412;SDS011;3239;48.714;9.472;2022-11-15T11:26:29;8.30;;;5.87;;
6412;SDS011;3239;48.714;9.472;2022-11-15T11:35:39;6.77;;;5.63;;
6412;SDS011;3239;48.714;9.472;2022-11-15T11:41:27;13.53;;;7.03;;
6412;SDS011;3239;48.714;9.472;2022-11-15T11:44:32;13.30;;;5.87;;
6412;SDS011;3239;48.714;9.472;2022-11-15T11:47:24;10.83;;;6.33;;
6412;SDS011;3239;48.714;9.472;2022-11-15T11:50:10;7.43;;;6.10;;
6412;SDS011;3239;48.714;9.472;2022-11-15T11:52:54;10.43;;;6.00;;
6412;SDS011;3239;48.714;9.472;2022-11-15T11:56:02;13.20;;;5.57;;
6412;SDS011;3239;48.714;9.472;2022-11-15T11:58:41;8.53;;;6.20;;
6412;SDS011;3239;48.714;9.472;2022-11-15T12:04:01;12.53;;;6.97;;
6412;SDS011;3239;48.714;9.472;2022-11-15T12:06:36;7.07;;;5.47;;
6412;SDS011;3239;48.714;9.472;2022-11-15T12:09:15;9.13;;;6.17;;
6412;SDS011;3239;48.714;9.472;2022-11-15T12:14:35;13.90;;;6.67;;
6412;SDS011;3239;48.714;9.472;2022-11-15T12:17:26;10.90;;;6.30;;
6412;SDS011;3239;48.714;9.472;2022-11-15T12:19:59;13.43;;;7.00;;
6412;SDS011;3239;48.714;9.472;2022-11-15T12:22:48;10.27;;;7.03;;
6412;SDS011;3239;48.714;9.472;2022-11-15T12:28:18;11.10;;;6.43;;
6412;SDS011;3239;48.714;9.472;2022-11-15T12:31:05;13.27;;;5.50;;
6412;SDS011;3239;48.714;9.472;2022-11-15T12:33:44;8.67;;;5.80;;
6412;SDS011;3239;48.714;9.472;2022-11-15T12:39:01;9.50;;;6.33;;
6412;SDS011;3239;48.714;9.472;2022-11-15T12:41:41;10.70;;;5.77;;
6412;SDS011;3239;48.714;9.472;2022-11-15T12:44:13;13.60;;;5.47;;
6412;SDS011;3239;48.714;9.472;2022-11-15T12:52:03;6.97;;;4.90;;
6412;SDS011;3239;48.714;9.472;2022-11-15T13:28:01;3.83;;;3.40;;
6412;SDS011;3239;48.714;9.472;2022-11-15T13:30:50;10.33;;;4.43;;
6412;SDS011;3239;48.714;9.472;2022-11-15T13:33:25;6.47;;;4.30;;
6412;SDS011;3239;48.714;9.472;2022-11-15T13:36:05;8.70;;;4.80;;
6412;SDS011;3239;48.714;9.472;2022-11-15T13:38:54;15.33;;;4.73;;
6412;SDS011;3239;48.714;9.472;2022-11-15T13:41:32;6.87;;;4.07;;
6412;SDS011;3239;48.714;9.472;2022-11-15T13:44:00;8.27;;;5.10;;
6412;SDS011;3239;48.714;9.472;2022-11-15T13:46:29;6.57;;;4.47;;
6412;SDS011;3239;48.714;9.472;2022-11-15T13:48:59;7.70;;;4.27;;
6412;SDS011;3239;48.714;9.472;2022-11-15T13:51:50;7.30;;;4.00;;
6412;SDS011;3239;48.714;9.472;2022-11-15T13:54:24;6.03;;;4.10;;
6412;SDS011;3239;48.714;9.472;2022-11-15T13:57:00;9.70;;;4.13;;
6412;SDS011;3239;48.714;9.472;2022-11-15T13:59:34;12.97;;;3.90;;
6412;SDS011;3239;48.714;9.472;2022-11-15T14:02:20;4.33;;;3.90;;
6412;SDS011;3239;48.714;9.472;2022-11-15T14:04:55;9.57;;;4.10;;
6412;SDS011;3239;48.714;9.472;2022-11-15T14:08:01;12.23;;;3.73;;
6412;SDS011;3239;48.714;9.472;2022-11-15T14:10:38;5.50;;;4.03;;
6412;SDS011;3239;48.714;9.472;2022-11-15T14:13:09;11.37;;;4.20;;
6412;SDS011;3239;48.714;9.472;2022-11-15T14:15:54;6.90;;;4.40;;
6412;SDS011;3239;48.714;9.472;2022-11-15T14:18:46;8.17;;;4.83;;
6412;SDS011;3239;48.714;9.472;2022-11-15T14:21:15;6.00;;;4.10;;
6412;SDS011;3239;48.714;9.472;2022-11-15T14:23:42;9.80;;;3.80;;
6412;SDS011;3239;48.714;9.472;2022-11-15T14:26:25;9.30;;;4.73;;
6412;SDS011;3239;48.714;9.472;2022-11-15T14:28:53;9.77;;;5.73;;
6412;SDS011;3239;48.714;9.472;2022-11-15T14:31:18;12.53;;;7.17;;
6412;SDS011;3239;48.714;9.472;2022-11-15T14:33:45;10.77;;;7.33;;
6412;SDS011;3239;48.714;9.472;2022-11-15T14:38:40;13.40;;;6.80;;
6412;SDS011;3239;48.714;9.472;2022-11-15T14:43:50;11.30;;;7.37;;
6412;SDS011;3239;48.714;9.472;2022-11-15T14:46:16;12.40;;;7.57;;
6412;SDS011;3239;48.714;9.472;2022-11-15T14:48:43;13.60;;;9.43;;
6412;SDS011;3239;48.714;9.472;2022-11-15T14:51:12;13.10;;;7.87;;
6412;SDS011;3239;48.714;9.472;2022-11-15T14:53:41;11.03;;;7.33;;
6412;SDS011;3239;48.714;9.472;2022-11-15T14:56:07;8.67;;;6.57;;
6412;SDS011;3239;48.714;9.472;2022-11-15T14:58:35;15.20;;;7.80;;
6412;SDS011;3239;48.714;9.472;2022-11-15T15:01:16;9.87;;;7.30;;
6412;SDS011;3239;48.714;9.472;2022-11-15T15:03:46;9.57;;;6.47;;
6412;SDS011;3239;48.714;9.472;2022-11-15T15:06:12;7.90;;;6.40;;
6412;SDS011;3239;48.714;9.472;2022-11-15T15:08:41;8.87;;;5.70;;
6412;SDS011;3239;48.714;9.472;2022-11-15T15:11:10;11.70;;;6.27;;
6412;SDS011;3239;48.714;9.472;2022-11-15T15:13:43;6.90;;;5.47;;
6412;SDS011;3239;48.714;9.472;2022-11-15T15:16:09;8.87;;;5.50;;
6412;SDS011;3239;48.714;9.472;2022-11-15T15:18:35;5.30;;;4.80;;
6412;SDS011;3239;48.714;9.472;2022-11-15T15:21:00;7.30;;;5.43;;
6412;SDS011;3239;48.714;9.472;2022-11-15T15:23:31;6.77;;;5.33;;
6412;SDS011;3239;48.714;9.472;2022-11-15T15:25:58;5.83;;;4.90;;
6412;SDS011;3239;48.714;9.472;2022-11-15T15:28:24;6.00;;;5.13;;
6412;SDS011;3239;48.714;9.472;2022-11-15T15:30:50;8.90;;;5.67;;
6412;SDS011;3239;48.714;9.472;2022-11-15T15:33:17;8.43;;;6.20;;
6412;SDS011;3239;48.714;9.472;2022-11-15T15:35:43;11.10;;;5.33;;
6412;SDS011;3239;48.714;9.472;2022-11-15T15:38:11;8.10;;;5.77;;
6412;SDS011;3239;48.714;9.472;2022-11-15T15:40:37;11.77;;;7.10;;
6412;SDS011;3239;48.714;9.472;2022-11-15T15:43:03;11.00;;;6.93;;
6412;SDS011;3239;48.714;9.472;2022-11-15T15:45:28;9.50;;;6.80;;
6412;SDS011;3239;48.714;9.472;2022-11-15T15:48:02;11.73;;;7.93;;
6412;SDS011;3239;48.714;9.472;2022-11-15T15:50:31;11.73;;;7.13;;
6412;SDS011;3239;48.714;9.472;2022-11-15T15:52:59;10.63;;;6.40;;
6412;SDS011;3239;48.714;9.472;2022-11-15T15:55:27;9.77;;;6.40;;
6412;SDS011;3239;48.714;9.472;2022-11-15T15:57:53;7.50;;;6.27;;
6412;SDS011;3239;48.714;9.472;2022-11-15T16:00:19;11.00;;;6.50;;
6412;SDS011;3239;48.714;9.472;2022-11-15T16:02:48;8.93;;;5.50;;
6412;SDS011;3239;48.714;9.472;2022-11-15T16:05:14;5.37;;;4.50;;
6412;SDS011;3239;48.714;9.472;2022-11-15T16:07:40;6.87;;;4.30;;
6412;SDS011;3239;48.714;9.472;2022-11-15T16:13:06;17.90;;;8.07;;
6412;SDS011;3239;48.714;9.472;2022-11-15T16:15:31;14.93;;;7.47;;
6412;SDS011;3239;48.714;9.472;2022-11-15T16:17:58;19.07;;;12.43;;
6412;SDS011;3239;48.714;9.472;2022-11-15T16:20:33;38.77;;;24.43;;
6412;SDS011;3239;48.714;9.472;2022-11-15T16:23:25;22.00;;;15.00;;
6412;SDS011;3239;48.714;9.472;2022-11-15T16:25:54;35.37;;;25.50;;
6412;SDS011;3239;48.714;9.472;2022-11-15T16:30:47;14.10;;;9.70;;
6412;SDS011;3239;48.714;9.472;2022-11-15T16:33:15;8.57;;;5.67;;
6412;SDS011;3239;48.714;9.472;2022-11-15T16:35:42;6.63;;;5.43;;
6412;SDS011;3239;48.714;9.472;2022-11-15T16:38:12;9.10;;;5.37;;
6412;SDS011;3239;48.714;9.472;2022-11-15T16:40:42;8.40;;;6.13;;
6412;SDS011;3239;48.714;9.472;2022-11-15T16:43:09;10.83;;;4.93;;
6412;SDS011;3239;48.714;9.472;2022-11-15T16:45:35;7.17;;;3.93;;
6412;SDS011;3239;48.714;9.472;2022-11-15T16:48:01;7.90;;;3.20;;
6412;SDS011;3239;48.714;9.472;2022-11-15T16:50:31;4.97;;;3.40;;
6412;SDS011;3239;48.714;9.472;2022-11-15T16:53:05;5.83;;;3.20;;
6412;SDS011;3239;48.714;9.472;2022-11-15T16:55:31;8.70;;;3.47;;
6412;SDS011;3239;48.714;9.472;2022-11-15T16:57:57;5.90;;;3.97;;
6412;SDS011;3239;48.714;9.472;2022-11-15T17:00:23;4.90;;;3.60;;
6412;SDS011;3239;48.714;9.472;2022-11-15T17:02:50;9.87;;;4.30;;
6412;SDS011;3239;48.714;9.472;2022-11-15T17:05:17;5.50;;;4.53;;
6412;SDS011;3239;48.714;9.472;2022-11-15T17:07:46;5.30;;;4.80;;
6412;SDS011;3239;48.714;9.472;2022-11-15T17:10:14;7.10;;;4.30;;
6412;SDS011;3239;48.714;9.472;2022-11-15T17:12:41;8.47;;;6.03;;
6412;SDS011;3239;48.714;9.472;2022-11-15T17:15:06;9.83;;;4.90;;
6412;SDS011;3239;48.714;9.472;2022-11-15T17:17:36;7.97;;;5.07;;
6412;SDS011;3239;48.714;9.472;2022-11-15T17:20:01;9.50;;;5.33;;
6412;SDS011;3239;48.714;9.472;2022-11-15T17:22:29;8.77;;;5.00;;
6412;SDS011;3239;48.714;9.472;2022-11-15T17:24:55;9.53;;;5.80;;
6412;SDS011;3239;48.714;9.472;2022-11-15T17:27:21;11.97;;;5.30;;
6412;SDS011;3239;48.714;9.472;2022-11-15T17:29:47;9.57;;;6.20;;
6412;SDS011;3239;48.714;9.472;2022-11-15T17:32:13;7.60;;;5.60;;
6412;SDS011;3239;48.714;9.472;2022-11-15T17:34:39;10.43;;;6.30;;
6412;SDS011;3239;48.714;9.472;2022-11-15T17:37:05;8.27;;;6.20;;
6412;SDS011;3239;48.714;9.472;2022-11-15T17:39:31;18.63;;;7.83;;
6412;SDS011;3239;48.714;9.472;2022-11-15T17:41:56;13.20;;;7.37;;
6412;SDS011;3239;48.714;9.472;2022-11-15T17:44:22;12.77;;;8.33;;